createdAt,value
2022-10-31T06:04:17.652Z,1009.11
2022-10-31T06:05:17.584Z,1009.1
2022-10-31T06:06:17.590Z,1009.14
2022-10-31T06:07:17.595Z,1009.18
2022-10-31T06:08:17.598Z,1009.18
2022-10-31T06:09:17.505Z,1009.19
2022-10-31T06:10:17.511Z,1009.21
2022-10-31T06:11:17.522Z,1009.17
2022-10-31T06:12:17.534Z,1009.13
2022-10-31T06:13:17.730Z,1009.14
2022-10-31T06:14:17.544Z,1009.21
2022-10-31T06:15:21.173Z,1009.24
2022-10-31T06:16:17.571Z,1009.27
2022-10-31T06:17:17.725Z,1009.24
2022-10-31T06:18:17.595Z,1009.25
2022-10-31T06:19:17.763Z,1009.24
2022-10-31T06:20:17.623Z,1009.26
2022-10-31T06:21:18.846Z,1009.33
2022-10-31T06:22:17.603Z,1009.3
2022-10-31T06:23:17.614Z,1009.33
2022-10-31T06:24:17.615Z,1009.33
2022-10-31T06:25:17.634Z,1009.35
2022-10-31T06:26:17.643Z,1009.32
2022-10-31T06:27:17.647Z,1009.38
2022-10-31T06:28:17.657Z,1009.33
2022-10-31T06:29:17.666Z,1009.4
2022-10-31T06:30:17.674Z,1009.38
2022-10-31T06:31:17.686Z,1009.36
2022-10-31T06:32:17.909Z,1009.41
2022-10-31T06:33:17.703Z,1009.39
2022-10-31T06:34:17.705Z,1009.39
2022-10-31T06:35:17.714Z,1009.38
2022-10-31T06:36:17.848Z,1009.41
2022-10-31T06:37:17.774Z,1009.42
2022-10-31T06:38:17.794Z,1009.49
2022-10-31T06:39:18.350Z,1009.52
2022-10-31T06:40:17.754Z,1009.46
2022-10-31T06:41:17.781Z,1009.48
2022-10-31T06:42:17.774Z,1009.53
2022-10-31T06:43:17.786Z,1009.54
2022-10-31T06:44:17.788Z,1009.56
2022-10-31T06:45:17.806Z,1009.61
2022-10-31T06:46:17.820Z,1009.6
2022-10-31T06:47:17.875Z,1009.58
2022-10-31T06:48:18.530Z,1009.63
2022-10-31T06:49:17.895Z,1009.61
2022-10-31T06:50:17.903Z,1009.62
2022-10-31T06:51:17.950Z,1009.64
2022-10-31T06:52:17.933Z,1009.64
2022-10-31T06:53:17.891Z,1009.68
2022-10-31T06:54:17.890Z,1009.67
2022-10-31T06:55:17.903Z,1009.66
2022-10-31T06:56:17.902Z,1009.68
2022-10-31T06:57:17.910Z,1009.65
2022-10-31T06:58:17.923Z,1009.72
2022-10-31T06:59:17.929Z,1009.68
2022-10-31T07:00:17.948Z,1009.7
2022-10-31T07:01:18.647Z,1009.68
2022-10-31T07:02:18.042Z,1009.72
2022-10-31T07:03:17.971Z,1009.71
2022-10-31T07:04:17.976Z,1009.7
2022-10-31T07:05:17.988Z,1009.72
2022-10-31T07:06:17.998Z,1009.67
2022-10-31T07:07:18.004Z,1009.68
2022-10-31T07:08:18.042Z,1009.7
2022-10-31T07:09:18.023Z,1009.69
2022-10-31T07:10:18.040Z,1009.68
2022-10-31T07:11:18.042Z,1009.68
2022-10-31T07:12:18.043Z,1009.71
2022-10-31T07:13:18.057Z,1009.73
2022-10-31T07:14:18.079Z,1009.74
2022-10-31T07:15:18.418Z,1009.77
2022-10-31T07:16:18.711Z,1009.77
2022-10-31T07:17:18.095Z,1009.82
2022-10-31T07:18:18.105Z,1009.83
2022-10-31T07:19:18.130Z,1009.85
2022-10-31T07:20:18.118Z,1009.87
2022-10-31T07:21:18.129Z,1009.88
2022-10-31T07:22:18.143Z,1009.86
2022-10-31T07:23:18.147Z,1009.87
2022-10-31T07:24:18.183Z,1009.89
2022-10-31T07:25:18.168Z,1009.93
2022-10-31T07:26:18.187Z,1009.95
2022-10-31T07:27:18.186Z,1009.93
2022-10-31T07:28:18.194Z,1009.91
2022-10-31T07:29:18.214Z,1009.94
2022-10-31T07:30:18.223Z,1009.96
2022-10-31T07:31:18.227Z,1009.93
2022-10-31T07:32:18.257Z,1009.99
2022-10-31T07:33:18.246Z,1009.99
2022-10-31T07:34:18.263Z,1009.96
2022-10-31T07:35:18.263Z,1009.98
2022-10-31T07:36:18.285Z,1010.02
2022-10-31T07:37:18.299Z,1010.01
2022-10-31T07:38:18.305Z,1010.02
2022-10-31T07:39:18.314Z,1010.05
2022-10-31T07:40:18.351Z,1010.03
2022-10-31T07:41:18.336Z,1010.07
2022-10-31T07:42:18.362Z,1010.03
2022-10-31T07:43:18.354Z,1010.06
2022-10-31T07:44:18.371Z,1010.02
2022-10-31T07:45:18.381Z,1009.96
2022-10-31T07:46:18.392Z,1010.05
2022-10-31T07:47:18.393Z,1010.09
2022-10-31T07:48:18.426Z,1010.06
2022-10-31T07:49:18.416Z,1010.03
2022-10-31T07:50:18.436Z,1010.02
2022-10-31T07:51:18.433Z,1010.02
2022-10-31T07:52:18.447Z,1010.02
2022-10-31T07:53:18.460Z,1010.03
2022-10-31T07:54:18.490Z,1009.99
2022-10-31T07:55:18.798Z,1010.03
2022-10-31T07:56:18.529Z,1010.04
2022-10-31T07:57:21.453Z,1010.03
2022-10-31T07:58:18.538Z,1010.03
2022-10-31T07:59:18.544Z,1010.07
2022-10-31T08:00:18.560Z,1010.06
2022-10-31T08:01:18.576Z,1010.06
2022-10-31T08:02:18.585Z,1010.04
2022-10-31T08:03:18.593Z,1010.09
2022-10-31T08:04:18.612Z,1010.08
2022-10-31T08:05:18.606Z,1010.05
2022-10-31T08:06:18.617Z,1010.08
2022-10-31T08:07:18.639Z,1010.08
2022-10-31T08:08:18.681Z,1010.06
2022-10-31T08:09:18.657Z,1010.11
2022-10-31T08:10:18.668Z,1010.08
2022-10-31T08:11:18.678Z,1010.1
2022-10-31T08:12:18.713Z,1010.1
2022-10-31T08:13:18.697Z,1010.11
2022-10-31T08:14:18.714Z,1010.1
2022-10-31T08:15:18.730Z,1010.1
2022-10-31T08:16:18.746Z,1010.09
2022-10-31T08:17:18.758Z,1010.12
2022-10-31T08:18:18.762Z,1010.1
2022-10-31T08:19:18.780Z,1010.09
2022-10-31T08:20:18.788Z,1010.08
2022-10-31T08:21:18.802Z,1010.05
2022-10-31T08:22:18.819Z,1010.03
2022-10-31T08:23:18.834Z,1010.04
2022-10-31T08:24:18.841Z,1010.04
2022-10-31T08:25:18.852Z,1010.04
2022-10-31T08:26:18.865Z,1010.06
2022-10-31T08:27:18.877Z,1010.11
2022-10-31T08:28:18.923Z,1010.09
2022-10-31T08:29:18.917Z,1010.09
2022-10-31T08:30:18.945Z,1010.1
2022-10-31T08:31:18.941Z,1010.06
2022-10-31T08:32:18.944Z,1010.02
2022-10-31T08:33:18.960Z,1010.1
2022-10-31T08:34:19.013Z,1010.04
2022-10-31T08:35:19.594Z,1010.04
2022-10-31T08:36:19.243Z,1010.04
2022-10-31T08:37:20.432Z,1010.07
2022-10-31T08:38:19.027Z,1010.09
2022-10-31T08:39:19.040Z,1010.13
2022-10-31T08:40:19.067Z,1010.13
2022-10-31T08:41:19.084Z,1010.08
2022-10-31T08:42:19.084Z,1010
2022-10-31T08:43:19.100Z,1010.02
2022-10-31T08:44:19.155Z,1010.03
2022-10-31T08:45:19.736Z,1010.03
2022-10-31T08:46:19.152Z,1010.05
2022-10-31T08:47:19.154Z,1010.01
2022-10-31T08:48:19.177Z,1010
2022-10-31T08:49:19.188Z,1010.03
2022-10-31T08:50:19.204Z,1010.02
2022-10-31T08:51:19.220Z,1010.05
2022-10-31T08:52:19.237Z,1010.04
2022-10-31T08:53:19.246Z,1010
2022-10-31T08:54:19.266Z,1010.04
2022-10-31T08:55:19.287Z,1010.02
2022-10-31T08:56:19.333Z,1010.05
2022-10-31T08:57:19.317Z,1010.07
2022-10-31T08:58:19.327Z,1010.08
2022-10-31T08:59:19.334Z,1010.08
2022-10-31T09:00:19.388Z,1010.07
2022-10-31T09:01:20.135Z,1010.06
2022-10-31T09:02:19.633Z,1010.08
2022-10-31T09:03:19.707Z,1010.07
2022-10-31T09:04:20.046Z,1010.08
2022-10-31T09:05:20.045Z,1010.06
2022-10-31T09:06:20.126Z,1010.12
2022-10-31T09:07:20.845Z,1010.1
2022-10-31T09:08:19.491Z,1010.07
2022-10-31T09:09:19.495Z,1010.05
2022-10-31T09:10:19.525Z,1010.08
2022-10-31T09:11:19.527Z,1010.03
2022-10-31T09:12:19.539Z,1010.04
2022-10-31T09:13:19.570Z,1009.98
2022-10-31T09:14:19.577Z,1010
2022-10-31T09:15:19.619Z,1009.99
2022-10-31T09:16:19.646Z,1009.96
2022-10-31T09:17:19.655Z,1009.97
2022-10-31T09:18:19.629Z,1009.96
2022-10-31T09:19:19.645Z,1009.98
2022-10-31T09:20:19.661Z,1009.97
2022-10-31T09:21:19.684Z,1009.96
2022-10-31T09:22:19.698Z,1009.96
2022-10-31T09:23:19.706Z,1009.95
2022-10-31T09:24:19.733Z,1009.99
2022-10-31T09:25:19.747Z,1010.01
2022-10-31T09:26:19.840Z,1010
2022-10-31T09:27:19.781Z,1009.98
2022-10-31T09:28:19.794Z,1009.93
2022-10-31T09:29:19.820Z,1009.92
2022-10-31T09:30:19.832Z,1009.93
2022-10-31T09:31:19.867Z,1009.93
2022-10-31T09:32:19.881Z,1009.96
2022-10-31T09:33:19.876Z,1009.96
2022-10-31T09:34:19.907Z,1009.96
2022-10-31T09:35:21.663Z,1009.92
2022-10-31T09:36:19.931Z,1009.96
2022-10-31T09:37:19.955Z,1009.95
2022-10-31T09:38:19.993Z,1009.97
2022-10-31T09:39:19.988Z,1009.9
2022-10-31T09:40:20.000Z,1009.9
2022-10-31T09:41:20.014Z,1009.89
2022-10-31T09:42:20.034Z,1009.91
2022-10-31T09:43:20.052Z,1009.86
2022-10-31T09:44:20.439Z,1009.84
2022-10-31T09:45:20.099Z,1009.83
2022-10-31T09:46:20.204Z,1009.81
2022-10-31T09:47:20.124Z,1009.79
2022-10-31T09:48:20.197Z,1009.78
2022-10-31T09:49:20.258Z,1009.79
2022-10-31T09:50:20.171Z,1009.8
2022-10-31T09:51:20.192Z,1009.77
2022-10-31T09:52:20.407Z,1009.75
2022-10-31T09:53:20.232Z,1009.74
2022-10-31T09:54:20.251Z,1009.8
2022-10-31T09:55:20.266Z,1009.78
2022-10-31T09:56:20.275Z,1009.8
2022-10-31T09:57:21.713Z,1009.78
2022-10-31T09:58:20.315Z,1009.76
2022-10-31T09:59:20.359Z,1009.78
2022-10-31T10:00:20.379Z,1009.77
2022-10-31T10:01:20.533Z,1009.76
2022-10-31T10:02:20.449Z,1009.76
2022-10-31T10:03:20.401Z,1009.78
2022-10-31T10:04:20.853Z,1009.77
2022-10-31T10:05:20.459Z,1009.78
2022-10-31T10:06:20.455Z,1009.76
2022-10-31T10:07:20.495Z,1009.75
2022-10-31T10:08:20.501Z,1009.73
2022-10-31T10:10:20.657Z,1009.71
2022-10-31T10:11:20.548Z,1009.73
2022-10-31T10:12:20.563Z,1009.74
2022-10-31T10:13:20.589Z,1009.72
2022-10-31T10:14:20.604Z,1009.75
2022-10-31T10:15:20.629Z,1009.79
2022-10-31T10:16:20.651Z,1009.76
2022-10-31T10:17:20.656Z,1009.77
2022-10-31T10:18:20.699Z,1009.76
2022-10-31T10:19:20.693Z,1009.76
2022-10-31T10:20:21.034Z,1009.74
2022-10-31T10:21:20.745Z,1009.71
2022-10-31T10:22:20.766Z,1009.77
2022-10-31T10:23:20.785Z,1009.8
2022-10-31T10:24:20.788Z,1009.75
2022-10-31T10:25:20.806Z,1009.76
2022-10-31T10:26:20.948Z,1009.76
2022-10-31T10:27:22.405Z,1009.76
2022-10-31T10:28:20.860Z,1009.75
2022-10-31T10:29:20.879Z,1009.78
2022-10-31T10:30:20.919Z,1009.77
2022-10-31T10:31:20.918Z,1009.78
2022-10-31T10:32:20.965Z,1009.75
2022-10-31T10:33:21.571Z,1009.77
2022-10-31T10:34:21.586Z,1009.73
2022-10-31T10:35:20.999Z,1009.75
2022-10-31T10:36:21.634Z,1009.74
2022-10-31T10:37:21.049Z,1009.75
2022-10-31T10:38:21.058Z,1009.73
2022-10-31T10:39:21.073Z,1009.74
2022-10-31T10:40:21.103Z,1009.73
2022-10-31T10:41:21.107Z,1009.7
2022-10-31T10:42:21.135Z,1009.74
2022-10-31T10:43:21.161Z,1009.76
2022-10-31T10:44:21.182Z,1009.73
2022-10-31T10:45:21.188Z,1009.7
2022-10-31T10:46:21.815Z,1009.7
2022-10-31T10:47:21.354Z,1009.69
2022-10-31T10:48:21.552Z,1009.67
2022-10-31T10:49:21.284Z,1009.66
2022-10-31T10:50:21.892Z,1009.64
2022-10-31T10:51:31.540Z,1009.62
2022-10-31T10:52:51.676Z,1009.61
2022-10-31T10:53:51.669Z,1009.6
2022-10-31T10:54:51.690Z,1009.59
2022-10-31T10:55:52.050Z,1009.59
2022-10-31T10:56:51.740Z,1009.56
2022-10-31T10:57:51.751Z,1009.56
2022-10-31T10:58:51.769Z,1009.53
2022-10-31T10:59:52.077Z,1009.54
2022-10-31T11:00:51.986Z,1009.51
2022-10-31T11:01:51.843Z,1009.52
2022-10-31T11:02:51.875Z,1009.5
2022-10-31T11:03:51.878Z,1009.49
2022-10-31T11:04:51.878Z,1009.53
2022-10-31T11:05:51.904Z,1009.49
2022-10-31T11:06:51.941Z,1009.48
2022-10-31T11:07:51.950Z,1009.52
2022-10-31T11:08:51.984Z,1009.5
2022-10-31T11:09:51.983Z,1009.5
2022-10-31T11:10:52.004Z,1009.5
2022-10-31T11:11:52.023Z,1009.49
2022-10-31T11:12:52.639Z,1009.47
2022-10-31T11:13:52.056Z,1009.44
2022-10-31T11:14:52.076Z,1009.4
2022-10-31T11:15:52.098Z,1009.46
2022-10-31T17:13:29.987Z,1006.48
2022-10-31T17:14:29.979Z,1006.49
2022-10-31T17:15:29.988Z,1006.45
2022-10-31T17:16:30.003Z,1006.43
2022-10-31T17:17:30.015Z,1006.45
2022-10-31T17:18:30.040Z,1006.43
2022-10-31T17:19:30.053Z,1006.46
2022-10-31T17:20:30.051Z,1006.46
2022-10-31T17:21:30.071Z,1006.52
2022-10-31T17:22:30.163Z,1006.49
2022-10-31T17:23:30.157Z,1006.53
2022-10-31T17:24:30.113Z,1006.5
2022-10-31T17:25:30.201Z,1006.54
2022-10-31T17:26:30.147Z,1006.51
2022-10-31T17:27:30.158Z,1006.51
2022-10-31T17:28:30.175Z,1006.52
2022-10-31T17:29:30.225Z,1006.51
2022-10-31T17:30:30.205Z,1006.54
2022-10-31T17:31:30.217Z,1006.54
2022-10-31T17:32:30.237Z,1006.53
2022-10-31T17:33:30.244Z,1006.51
2022-10-31T17:34:30.265Z,1006.49
2022-10-31T17:35:30.273Z,1006.54
2022-10-31T17:36:30.287Z,1006.52
2022-10-31T17:37:30.300Z,1006.53
2022-10-31T17:38:30.334Z,1006.49
2022-10-31T17:39:30.331Z,1006.48
2022-10-31T17:40:30.347Z,1006.49
2022-10-31T17:41:30.349Z,1006.48
2022-10-31T17:42:30.366Z,1006.48
2022-10-31T17:43:30.986Z,1006.51
2022-10-31T17:44:30.992Z,1006.42
2022-10-31T17:45:30.429Z,1006.47
2022-10-31T17:46:30.417Z,1006.45
2022-10-31T17:47:30.549Z,1006.45
2022-10-31T17:48:30.516Z,1006.43
2022-10-31T17:49:30.482Z,1006.42
2022-10-31T17:50:30.482Z,1006.4
2022-10-31T17:51:30.501Z,1006.39
2022-10-31T17:52:30.496Z,1006.35
2022-10-31T17:53:30.519Z,1006.36
2022-10-31T17:54:30.528Z,1006.35
2022-10-31T17:55:32.844Z,1006.33
2022-10-31T17:56:30.549Z,1006.34
2022-10-31T17:57:30.585Z,1006.36
2022-10-31T17:58:30.645Z,1006.32
2022-10-31T17:59:30.618Z,1006.33
2022-10-31T18:00:30.627Z,1006.37
2022-10-31T18:01:30.821Z,1006.37
2022-10-31T18:02:30.831Z,1006.36
2022-10-31T18:03:30.650Z,1006.35
2022-10-31T18:04:30.674Z,1006.34
2022-10-31T18:05:30.687Z,1006.33
2022-10-31T18:06:30.712Z,1006.26
2022-10-31T18:07:30.715Z,1006.29
2022-10-31T18:08:30.746Z,1006.27
2022-10-31T18:09:30.834Z,1006.27
2022-10-31T18:10:30.882Z,1006.23
2022-10-31T18:11:30.777Z,1006.24
2022-10-31T18:12:30.787Z,1006.27
2022-10-31T18:13:30.779Z,1006.24
2022-10-31T18:14:30.809Z,1006.23
2022-10-31T18:15:30.830Z,1006.17
2022-10-31T18:16:30.901Z,1006.2
2022-10-31T18:17:30.882Z,1006.17
2022-10-31T18:18:30.868Z,1006.14
2022-10-31T18:19:30.897Z,1006.12
2022-10-31T18:20:30.894Z,1006.16
2022-10-31T18:21:30.890Z,1006.17
2022-10-31T18:22:30.904Z,1006.17
2022-10-31T18:23:30.918Z,1006.13
2022-10-31T18:24:31.703Z,1006.13
2022-10-31T18:25:31.009Z,1006.14
2022-10-31T18:26:30.954Z,1006.15
2022-10-31T18:27:30.972Z,1006.11
2022-10-31T18:28:30.984Z,1006.14
2022-10-31T18:29:31.598Z,1006.1
2022-10-31T18:30:31.022Z,1006.12
2022-10-31T18:31:31.628Z,1006.08
2022-10-31T18:32:31.032Z,1006.06
2022-10-31T18:33:31.072Z,1006.01
2022-10-31T18:34:31.055Z,1006
2022-10-31T18:35:31.084Z,1005.98
2022-10-31T18:36:31.083Z,1005.95
2022-10-31T18:37:31.177Z,1005.93
2022-10-31T18:38:31.106Z,1005.92
2022-10-31T18:39:31.123Z,1005.89
2022-10-31T18:40:31.137Z,1005.86
2022-10-31T18:41:31.154Z,1005.89
2022-10-31T18:42:31.159Z,1005.88
2022-10-31T18:43:31.172Z,1005.84
2022-10-31T18:44:31.184Z,1005.85
2022-10-31T18:45:41.411Z,1005.86
2022-10-31T18:46:31.219Z,1005.83
2022-10-31T18:47:31.246Z,1005.81
2022-10-31T18:48:31.237Z,1005.78
2022-10-31T18:49:31.275Z,1005.8
2022-10-31T18:50:31.257Z,1005.82
2022-10-31T18:51:31.267Z,1005.77
2022-10-31T18:52:31.281Z,1005.82
2022-10-31T18:53:31.360Z,1005.8
2022-10-31T18:54:31.313Z,1005.82
2022-10-31T18:55:31.321Z,1005.81
2022-10-31T18:56:31.330Z,1005.79
2022-10-31T18:57:31.348Z,1005.8
2022-10-31T18:58:31.965Z,1005.77
2022-10-31T18:59:31.974Z,1005.75
2022-10-31T19:00:31.385Z,1005.73
2022-10-31T19:01:31.585Z,1005.73
2022-10-31T19:02:31.569Z,1005.71
2022-10-31T19:03:31.427Z,1005.71
2022-10-31T19:04:31.437Z,1005.69
2022-10-31T19:05:31.471Z,1005.68
2022-10-31T19:06:31.463Z,1005.63
2022-10-31T19:07:31.497Z,1005.64
2022-10-31T19:08:31.493Z,1005.64
2022-10-31T19:09:31.930Z,1005.62
2022-10-31T19:10:31.519Z,1005.63
2022-10-31T19:11:31.533Z,1005.6
2022-10-31T19:12:31.550Z,1005.6
2022-10-31T19:13:31.547Z,1005.57
2022-10-31T19:14:31.575Z,1005.56
2022-10-31T19:15:31.578Z,1005.53
2022-10-31T19:16:31.598Z,1005.54
2022-10-31T19:17:31.612Z,1005.53
2022-10-31T19:18:31.625Z,1005.48
2022-10-31T19:19:31.625Z,1005.5
2022-10-31T19:20:31.645Z,1005.5
2022-10-31T19:21:31.682Z,1005.46
2022-10-31T19:22:31.672Z,1005.45
2022-10-31T19:23:31.693Z,1005.45
2022-10-31T19:24:31.699Z,1005.47
2022-10-31T19:25:31.745Z,1005.44
2022-10-31T19:26:31.710Z,1005.4
2022-10-31T19:27:31.741Z,1005.39
2022-10-31T19:28:31.764Z,1005.38
2022-10-31T19:29:31.784Z,1005.35
2022-10-31T19:30:31.790Z,1005.4
2022-10-31T19:31:31.796Z,1005.35
2022-10-31T19:32:31.799Z,1005.35
2022-10-31T19:33:33.376Z,1005.39
2022-10-31T19:34:31.820Z,1005.39
2022-10-31T19:35:31.836Z,1005.32
2022-10-31T19:36:31.837Z,1005.33
2022-10-31T19:37:31.891Z,1005.31
2022-10-31T19:38:31.883Z,1005.31
2022-10-31T19:39:31.908Z,1005.29
2022-10-31T19:40:31.984Z,1005.22
2022-10-31T19:41:31.942Z,1005.21
2022-10-31T19:42:31.937Z,1005.24
2022-10-31T19:43:32.165Z,1005.16
2022-10-31T19:44:31.962Z,1005.17
2022-10-31T19:45:31.964Z,1005.14
2022-10-31T19:46:52.066Z,1005.17
2022-10-31T19:47:31.998Z,1005.16
2022-10-31T19:48:32.012Z,1005.19
2022-10-31T19:49:32.060Z,1005.22
2022-10-31T19:50:32.016Z,1005.22
2022-10-31T19:51:32.042Z,1005.19
2022-10-31T19:52:32.057Z,1005.19
2022-10-31T19:53:32.084Z,1005.1
2022-10-31T19:54:32.086Z,1005.07
2022-10-31T19:55:32.089Z,1005.11
2022-10-31T19:56:32.103Z,1005.09
2022-10-31T19:57:48.707Z,1005.08
2022-10-31T19:58:32.134Z,1005.1
2022-10-31T19:59:36.639Z,1005.11
2022-10-31T20:00:32.159Z,1005.09
2022-10-31T20:01:32.235Z,1005.1
2022-10-31T20:02:32.190Z,1005.11
2022-10-31T20:03:32.193Z,1005.1
2022-10-31T20:04:32.208Z,1005.12
2022-10-31T20:05:32.217Z,1005.08
2022-10-31T20:06:32.281Z,1005.1
2022-10-31T20:07:32.248Z,1005.11
2022-10-31T20:08:35.686Z,1005.13
2022-10-31T20:09:32.295Z,1005.11
2022-10-31T20:10:32.530Z,1005.12
2022-10-31T20:11:32.529Z,1005.15
2022-10-31T20:12:32.324Z,1005.15
2022-10-31T20:13:32.329Z,1005.16
2022-10-31T20:14:32.333Z,1005.12
2022-10-31T20:15:32.959Z,1005.11
2022-10-31T20:16:32.382Z,1005.17
2022-10-31T20:17:32.985Z,1005.14
2022-10-31T20:18:32.394Z,1005.12
2022-10-31T20:19:32.466Z,1005.15
2022-10-31T20:20:33.167Z,1005.11
2022-10-31T20:21:32.517Z,1005.02
2022-10-31T20:22:32.454Z,1005.03
2022-10-31T20:23:32.522Z,1005.02
2022-10-31T20:24:32.659Z,1005.01
2022-10-31T20:25:32.507Z,1005.01
2022-10-31T20:26:32.489Z,1005.03
2022-10-31T20:27:32.536Z,1005.03
2022-10-31T20:28:33.144Z,1005.07
2022-10-31T20:29:32.532Z,1005.07
2022-10-31T20:30:32.555Z,1005.1
2022-10-31T20:31:32.565Z,1005.12
2022-10-31T20:32:32.573Z,1005.12
2022-10-31T20:33:32.593Z,1005.1
2022-10-31T20:34:32.606Z,1005.11
2022-10-31T20:35:32.641Z,1005.09
2022-10-31T20:36:32.631Z,1005.06
2022-10-31T20:37:32.630Z,1005.04
2022-10-31T20:38:32.651Z,1005.08
2022-10-31T20:39:32.664Z,1005.02
2022-10-31T20:40:32.685Z,1005.03
2022-10-31T20:41:32.707Z,1005.01
2022-10-31T20:42:32.703Z,1005.02
2022-10-31T20:43:32.721Z,1005.02
2022-10-31T20:44:32.722Z,1005.01
2022-10-31T20:45:32.739Z,1004.98
2022-10-31T20:46:32.751Z,1004.97
2022-10-31T20:47:32.771Z,1004.93
2022-10-31T20:48:32.778Z,1004.94
2022-10-31T20:49:32.800Z,1004.97
2022-10-31T20:50:32.808Z,1004.98
2022-10-31T20:51:32.835Z,1004.95
2022-10-31T20:52:32.842Z,1004.94
2022-10-31T20:53:32.849Z,1004.94
2022-10-31T20:54:32.855Z,1004.91
2022-10-31T20:55:32.880Z,1004.93
2022-10-31T20:56:32.890Z,1004.91
2022-10-31T20:57:32.920Z,1004.91
2022-10-31T20:58:32.909Z,1004.83
2022-10-31T20:59:34.187Z,1004.81
2022-10-31T21:00:32.935Z,1004.83
2022-10-31T21:01:33.110Z,1004.77
2022-10-31T21:02:32.995Z,1004.79
2022-10-31T21:03:32.965Z,1004.76
2022-10-31T21:04:33.002Z,1004.73
2022-10-31T21:05:33.017Z,1004.75
2022-10-31T21:06:32.999Z,1004.7
2022-10-31T21:07:33.635Z,1004.69
2022-10-31T21:08:33.032Z,1004.68
2022-10-31T21:09:33.108Z,1004.67
2022-10-31T21:10:33.057Z,1004.62
2022-10-31T21:11:33.081Z,1004.61
2022-10-31T21:12:33.074Z,1004.52
2022-10-31T21:13:33.315Z,1004.55
2022-10-31T21:14:33.104Z,1004.49
2022-10-31T21:15:33.116Z,1004.45
2022-10-31T21:16:33.141Z,1004.44
2022-10-31T21:17:33.149Z,1004.46
2022-10-31T21:18:33.261Z,1004.47
2022-10-31T21:19:33.174Z,1004.43
2022-10-31T21:20:33.276Z,1004.43
2022-10-31T21:21:33.297Z,1004.42
2022-10-31T21:22:33.297Z,1004.36
2022-10-31T21:23:33.301Z,1004.37
2022-10-31T21:24:33.337Z,1004.39
2022-10-31T21:25:33.460Z,1004.37
2022-10-31T21:26:33.349Z,1004.36
2022-10-31T21:27:33.351Z,1004.36
2022-10-31T21:28:33.467Z,1004.39
2022-10-31T21:29:33.385Z,1004.35
2022-10-31T21:30:33.494Z,1004.39
2022-10-31T21:31:33.388Z,1004.35
2022-10-31T21:32:33.390Z,1004.39
2022-10-31T21:33:33.946Z,1004.36
2022-10-31T21:34:33.468Z,1004.37
2022-10-31T21:35:33.462Z,1004.34
2022-10-31T21:36:33.569Z,1004.39
2022-10-31T21:37:33.479Z,1004.37
2022-10-31T21:38:33.492Z,1004.38
2022-10-31T21:39:33.499Z,1004.44
2022-10-31T21:40:34.086Z,1004.39
2022-10-31T21:41:34.059Z,1004.38
2022-10-31T21:42:33.512Z,1004.42
2022-10-31T21:43:33.513Z,1004.43
2022-10-31T21:44:33.543Z,1004.42
2022-10-31T21:45:33.547Z,1004.39
2022-10-31T21:46:33.599Z,1004.4
2022-10-31T21:47:33.586Z,1004.39
2022-10-31T21:48:33.585Z,1004.4
2022-10-31T21:49:33.542Z,1004.36
2022-10-31T21:50:33.550Z,1004.32
2022-10-31T21:51:33.563Z,1004.31
2022-10-31T21:52:33.580Z,1004.26
2022-10-31T21:53:33.585Z,1004.26
2022-10-31T21:54:33.596Z,1004.28
2022-10-31T21:55:33.610Z,1004.21
2022-10-31T21:56:33.655Z,1004.24
2022-10-31T21:57:33.660Z,1004.16
2022-10-31T21:58:34.882Z,1004.15
2022-10-31T21:59:33.683Z,1004.15
2022-10-31T22:00:33.673Z,1004.13
2022-10-31T22:01:33.816Z,1004.07
2022-10-31T22:02:33.696Z,1004.07
2022-10-31T22:03:33.713Z,1004.02
2022-10-31T22:04:33.727Z,1004.03
2022-10-31T22:05:33.744Z,1004
2022-10-31T22:06:33.761Z,1003.97
2022-10-31T22:07:33.789Z,1003.98
2022-10-31T22:08:33.763Z,1004.02
2022-10-31T22:09:33.782Z,1004.01
2022-10-31T22:10:33.807Z,1004.02
2022-10-31T22:11:33.804Z,1004.01
2022-10-31T22:12:33.827Z,1004.04
2022-10-31T22:13:33.840Z,1004.03
2022-10-31T22:14:33.870Z,1004.03
2022-10-31T22:15:33.850Z,1004.01
2022-10-31T22:16:34.085Z,1004.01
2022-10-31T22:17:34.503Z,1004.02
2022-10-31T22:18:33.889Z,1003.99
2022-10-31T22:19:35.429Z,1003.94
2022-10-31T22:20:33.950Z,1003.94
2022-10-31T22:21:34.075Z,1004.01
2022-10-31T22:22:33.936Z,1003.96
2022-10-31T22:23:33.953Z,1003.99
2022-10-31T22:24:33.968Z,1004.01
2022-10-31T22:25:33.989Z,1004.01
2022-10-31T22:26:33.986Z,1004
2022-10-31T22:27:34.010Z,1003.97
2022-10-31T22:28:34.015Z,1003.96
2022-10-31T22:29:34.020Z,1003.92
2022-10-31T22:30:34.036Z,1003.96
2022-10-31T22:31:34.066Z,1003.92
2022-10-31T22:32:34.068Z,1003.87
2022-10-31T22:33:34.095Z,1003.8
2022-10-31T22:34:34.082Z,1003.76
2022-10-31T22:35:34.119Z,1003.75
2022-10-31T22:36:34.338Z,1003.7
2022-10-31T22:37:34.156Z,1003.68
2022-10-31T22:38:34.141Z,1003.66
2022-10-31T22:39:34.163Z,1003.69
2022-10-31T22:40:34.171Z,1003.63
2022-10-31T22:41:34.171Z,1003.66
2022-10-31T22:42:34.178Z,1003.63
2022-10-31T22:43:34.216Z,1003.59
2022-10-31T22:44:34.231Z,1003.62
2022-10-31T22:45:34.245Z,1003.52
2022-10-31T22:46:34.242Z,1003.48
2022-10-31T22:47:34.275Z,1003.5
2022-10-31T22:48:34.273Z,1003.47
2022-10-31T22:49:34.335Z,1003.52
2022-10-31T22:50:34.289Z,1003.48
2022-10-31T22:51:34.300Z,1003.52
2022-10-31T22:52:34.308Z,1003.5
2022-10-31T22:53:34.334Z,1003.51
2022-10-31T22:54:34.346Z,1003.49
2022-10-31T22:55:34.368Z,1003.48
2022-10-31T22:56:34.371Z,1003.44
2022-10-31T22:57:34.387Z,1003.41
2022-10-31T22:58:34.391Z,1003.43
2022-10-31T22:59:34.401Z,1003.39
2022-10-31T23:00:34.518Z,1003.41
2022-10-31T23:01:34.593Z,1003.42
